Time;durP1;ratioP1;P1;durP2;ratioP2;P2;SDS_P1;SDS_P2;PMS_P1;PMS_P2;Temp;Humidity;BMP_temperature;BMP_pressure;BME280_temperature;BME280_humidity;BME280_pressure;Samples;Min_cycle;Max_cycle;Signal;HPM_P1;HPM_P2
2023/09/22 00:04:04;;;;;;;0.50;0.40;;;;;;;21.50;59.83;95487.75;10281544;28;20031;-27
2023/09/22 00:09:07;;;;;;;0.50;0.50;;;;;;;21.50;59.71;95501.34;10285571;28;20030;-27
2023/09/22 00:14:08;;;;;;;0.40;0.35;;;;;;;21.50;59.68;95486.06;10285654;28;20117;-26
2023/09/22 00:19:09;;;;;;;0.47;0.40;;;;;;;21.49;59.72;95489.47;10290446;28;20118;-27
2023/09/22 00:24:09;;;;;;;1.10;0.52;;;;;;;21.48;59.58;95485.25;10293571;28;20374;-28
2023/09/22 00:29:10;;;;;;;0.60;0.40;;;;;;;21.44;59.61;95483.69;10290504;28;20038;-27
2023/09/22 00:34:10;;;;;;;0.43;0.40;;;;;;;21.50;59.67;95505.59;10295184;28;20046;-27
2023/09/22 00:39:11;;;;;;;2.33;0.53;;;;;;;21.50;59.64;95525.97;10291521;28;20061;-27
2023/09/22 00:44:11;;;;;;;0.60;0.47;;;;;;;21.49;59.61;95509.84;10290021;28;20294;-27
2023/09/22 00:49:12;;;;;;;1.20;0.60;;;;;;;21.49;59.58;95516.66;10290661;28;20062;-28
2023/09/22 00:54:13;;;;;;;0.30;0.30;;;;;;;21.48;59.67;95528.53;10291084;28;20162;-26
2023/09/22 00:59:15;;;;;;;0.40;0.40;;;;;;;21.49;59.56;95512.38;10296150;28;20030;-27
2023/09/22 01:04:19;;;;;;;0.35;0.35;;;;;;;21.50;59.63;95498.78;10285463;28;20022;-27
2023/09/22 01:09:20;;;;;;;0.70;0.60;;;;;;;21.49;59.85;95488.66;10290940;28;20023;-27
2023/09/22 01:14:20;;;;;;;0.53;0.50;;;;;;;21.48;59.73;95475.06;10293057;28;20041;-27
2023/09/22 01:19:20;;;;;;;0.33;0.30;;;;;;;21.48;59.76;95472.53;10286412;28;20295;-27
2023/09/22 01:24:21;;;;;;;0.40;0.40;;;;;;;21.48;59.63;95477.63;10288608;28;20066;-27
2023/09/22 01:29:21;;;;;;;0.45;0.30;;;;;;;21.48;59.77;95482.72;10287242;28;20039;-27
2023/09/22 01:34:22;;;;;;;0.57;0.30;;;;;;;21.48;59.77;95485.25;10288242;28;20035;-27
2023/09/22 01:39:22;;;;;;;0.40;0.40;;;;;;;21.48;59.82;95472.53;10281651;28;20034;-27
2023/09/22 01:44:22;;;;;;;0.40;0.40;;;;;;;21.48;59.19;95486.97;10289969;28;20293;-27
2023/09/22 01:49:23;;;;;;;0.30;0.30;;;;;;;21.47;59.73;95491.22;10289270;28;20437;-28
2023/09/22 01:54:23;;;;;;;0.50;0.30;;;;;;;21.48;59.76;95499.72;10285522;28;20401;-27
2023/09/22 01:59:24;;;;;;;0.40;0.40;;;;;;;21.47;59.54;95509.06;10287608;28;20410;-27
2023/09/22 02:04:24;;;;;;;0.47;0.40;;;;;;;21.47;59.77;95493.78;10286673;28;20062;-27
2023/09/22 02:09:24;;;;;;;0.50;0.43;;;;;;;21.44;59.56;95476.06;10290963;28;20073;-27
2023/09/22 02:14:29;;;;;;;0.60;0.52;;;;;;;21.48;59.49;95475.06;10294719;28;20122;-27
2023/09/22 02:19:34;;;;;;;0.40;0.40;;;;;;;21.47;59.78;95481.03;10295177;28;20034;-26
2023/09/22 02:24:35;;;;;;;0.30;0.20;;;;;;;21.47;59.63;95481.03;10287261;28;20501;-27
2023/09/22 02:29:35;;;;;;;0.63;0.50;;;;;;;21.47;59.59;95475.94;10287659;28;20089;-28
2023/09/22 02:34:36;;;;;;;0.43;0.33;;;;;;;21.47;59.51;95470.84;10292129;28;20074;-27
2023/09/22 02:39:37;;;;;;;0.50;0.40;;;;;;;21.45;59.81;95475.19;10284764;28;20126;-27
2023/09/22 02:44:38;;;;;;;0.43;0.35;;;;;;;21.47;59.39;95495.50;10286589;28;20093;-28
2023/09/22 02:49:38;;;;;;;0.50;0.40;;;;;;;21.46;59.63;95504.03;10286269;28;20042;-27
2023/09/22 02:54:39;;;;;;;0.40;0.40;;;;;;;21.46;59.62;95502.31;10287539;28;20045;-27
2023/09/22 02:59:39;;;;;;;0.30;0.30;;;;;;;21.46;59.67;95504.84;10287091;28;20038;-28
2023/09/22 03:04:40;;;;;;;0.50;0.30;;;;;;;21.46;59.50;95478.56;10284920;28;20043;-27
2023/09/22 03:09:41;;;;;;;0.80;0.47;;;;;;;21.45;59.51;95477.72;10284709;28;20406;-26
2023/09/22 03:14:41;;;;;;;0.50;0.50;;;;;;;21.46;59.78;95486.22;10300732;28;20049;-27
2023/09/22 03:19:42;;;;;;;0.30;0.30;;;;;;;21.45;59.71;95454.81;10285973;28;20665;-27
2023/09/22 03:24:42;;;;;;;0.43;0.40;;;;;;;21.45;59.64;95449.72;10297134;28;20058;-27
2023/09/22 03:29:43;;;;;;;0.37;0.30;;;;;;;21.46;59.56;95471.75;10301984;28;20035;-27
2023/09/22 03:34:47;;;;;;;0.52;0.22;;;;;;;21.45;59.56;95457.34;10285293;28;20117;-26
2023/09/22 03:39:48;;;;;;;0.20;0.10;;;;;;;21.45;59.44;95477.72;10297693;28;20113;-27
2023/09/22 03:44:49;;;;;;;0.50;0.50;;;;;;;21.46;59.41;95493.84;10282273;28;20394;-27
2023/09/22 03:49:50;;;;;;;0.50;0.40;;;;;;;21.45;59.59;95480.25;10283342;28;20045;-27
2023/09/22 03:54:50;;;;;;;0.40;0.30;;;;;;;21.43;59.66;95487.13;10279821;28;20026;-28
2023/09/22 03:59:51;;;;;;;0.45;0.28;;;;;;;21.45;59.61;95497.25;10284444;28;20409;-27
2023/09/22 04:04:52;;;;;;;0.47;0.40;;;;;;;21.45;59.63;95518.47;10280377;28;20043;-27
2023/09/22 04:09:52;;;;;;;0.40;0.32;;;;;;;21.44;59.66;95519.34;10282732;28;20283;-26
2023/09/22 04:14:52;;;;;;;0.60;0.40;;;;;;;21.43;59.49;95489.69;10285315;28;20034;-27
2023/09/22 04:19:54;;;;;;;2.30;0.57;;;;;;;21.44;59.48;95483.69;10289195;28;20035;-27
2023/09/22 04:25:00;;;;;;;2.83;0.40;;;;;;;21.45;59.50;95479.41;10282499;28;20043;-27
2023/09/22 04:30:07;;;;;;;0.20;0.20;;;;;;;21.43;59.47;95501.56;10283911;28;20515;-27
2023/09/22 04:35:09;;;;;;;1.75;0.50;;;;;;;21.44;59.49;95511.72;10278785;28;20333;-27
2023/09/22 04:40:22;;;;;;;1.65;0.13;;;;;;;21.44;59.54;95515.94;10285862;28;20046;-27
2023/09/22 04:45:23;;;;;;;4.07;0.90;;;;;;;21.16;59.51;95526.16;10287834;28;20113;-26
2023/09/22 04:50:23;;;;;;;3.38;1.17;;;;;;;21.03;59.56;95519.75;10288691;28;20051;-27
2023/09/22 04:55:24;;;;;;;4.60;0.83;;;;;;;21.02;59.56;95507.91;10280723;28;20440;-27
2023/09/22 05:00:26;;;;;;;4.03;0.88;;;;;;;21.18;58.90;95537.13;10285312;28;20034;-27
2023/09/22 05:05:28;;;;;;;2.58;1.33;;;;;;;21.17;59.22;95563.44;10288471;28;20043;-27
2023/09/22 05:10:28;;;;;;;6.07;0.98;;;;;;;21.17;59.13;95568.53;10286307;28;20041;-27
2023/09/22 05:15:29;;;;;;;3.20;0.80;;;;;;;21.19;59.17;95571.03;10291171;28;20493;-27
2023/09/22 05:20:31;;;;;;;2.58;0.80;;;;;;;21.12;58.35;95570.38;10286736;28;20297;-26
2023/09/22 05:25:33;;;;;;;5.28;1.00;;;;;;;21.16;58.63;95566.88;10288800;28;20078;-26
2023/09/22 05:30:36;;;;;;;6.60;1.02;;;;;;;21.20;58.91;95573.53;10298422;28;20073;-27
2023/09/22 05:35:37;;;;;;;7.82;1.27;;;;;;;21.18;58.75;95594.81;10282982;28;20476;-27
2023/09/22 05:40:37;;;;;;;3.65;0.70;;;;;;;21.16;58.98;95607.59;10287556;28;20027;-27
2023/09/22 05:45:38;;;;;;;2.93;0.77;;;;;;;21.15;58.93;95616.09;10297305;28;20046;-27
2023/09/22 05:50:40;;;;;;;1.35;0.80;;;;;;;21.14;58.92;95604.25;10290950;28;20449;-27
2023/09/22 05:55:40;;;;;;;1.73;0.63;;;;;;;21.15;58.77;95595.72;10290343;28;20026;-27
2023/09/22 06:00:40;;;;;;;5.20;0.80;;;;;;;21.15;58.65;95580.44;10288931;28;20023;-27
2023/09/22 06:05:41;;;;;;;1.00;0.73;;;;;;;21.12;58.77;95559.34;10288585;28;20037;-26
2023/09/22 06:10:43;;;;;;;1.40;0.60;;;;;;;21.09;58.63;95570.47;10283077;28;20046;-27
2023/09/22 06:15:43;;;;;;;4.30;0.80;;;;;;;21.09;58.75;95597.63;10280404;28;20038;-27
2023/09/22 06:20:44;;;;;;;1.50;0.60;;;;;;;21.07;58.76;95573.94;10289616;28;20042;-27
2023/09/22 06:25:44;;;;;;;2.17;0.77;;;;;;;21.05;58.48;95568.88;10290243;28;20033;-27
2023/09/22 06:30:50;;;;;;;4.03;0.70;;;;;;;21.08;58.70;95573.91;10287659;28;20467;-27
2023/09/22 06:35:56;;;;;;;2.40;0.70;;;;;;;21.03;58.73;95591.00;10292017;28;20121;-28
2023/09/22 06:40:57;;;;;;;3.10;0.60;;;;;;;20.97;58.58;95586.06;10287800;28;20038;-27
2023/09/22 06:46:04;;;;;;;0.60;0.37;;;;;;;20.99;58.56;95593.66;10291652;28;20409;-27
2023/09/22 06:51:12;;;;;;;2.88;1.25;;;;;;;20.97;58.43;95623.41;10288134;28;20030;-27
2023/09/22 06:56:12;;;;;;;5.65;3.22;;;;;;;20.96;58.86;95624.28;10284021;28;20113;-29
2023/09/22 07:01:13;;;;;;;4.63;3.25;;;;;;;20.95;58.45;95636.16;10288472;28;20018;-27
2023/09/22 07:06:19;;;;;;;2.97;2.15;;;;;;;20.94;58.53;95638.75;10285032;28;20037;-26
2023/09/22 07:11:20;;;;;;;4.25;2.20;;;;;;;20.99;58.83;95650.47;10285109;28;20046;-27
2023/09/22 07:16:20;;;;;;;3.72;1.90;;;;;;;21.02;58.47;95635.13;10287772;28;20494;-27
2023/09/22 07:21:21;;;;;;;2.13;1.50;;;;;;;21.22;58.14;95653.22;10286000;28;20462;-27
2023/09/22 07:26:22;;;;;;;2.30;1.40;;;;;;;21.32;58.32;95652.09;10289331;28;20062;-27
2023/09/22 07:31:28;;;;;;;2.90;1.50;;;;;;;21.36;58.09;95655.38;10291517;28;20093;-28
2023/09/22 07:36:28;;;;;;;2.63;1.40;;;;;;;21.39;58.26;95645.94;10290825;28;20456;-28
2023/09/22 07:41:28;;;;;;;2.53;1.57;;;;;;;21.41;58.49;95649.28;10287192;28;20043;-27
2023/09/22 07:46:29;;;;;;;2.10;1.00;;;;;;;21.44;58.31;95651.75;10286000;28;20716;-26
2023/09/22 07:51:29;;;;;;;1.35;0.88;;;;;;;21.44;58.30;95646.66;10286282;28;20035;-26
2023/09/22 07:56:30;;;;;;;2.08;1.25;;;;;;;21.44;58.46;95659.41;10283596;28;20405;-27
2023/09/22 08:01:31;;;;;;;2.10;1.15;;;;;;;21.42;58.55;95661.16;10286316;28;20023;-26
2023/09/22 08:06:33;;;;;;;1.92;1.10;;;;;;;21.41;58.34;95667.09;10287599;28;20038;-28
2023/09/22 08:11:34;;;;;;;1.20;1.10;;;;;;;21.42;58.28;95662.88;10285890;28;20035;-27
2023/09/22 08:16:35;;;;;;;1.20;0.97;;;;;;;21.44;58.63;95674.69;10282445;28;20035;-29
2023/09/22 08:21:35;;;;;;;2.40;0.82;;;;;;;21.43;59.16;95678.09;10284519;28;20049;-27
2023/09/22 08:26:35;;;;;;;0.90;0.70;;;;;;;21.44;58.49;95679.78;10275860;28;20039;-27
2023/09/22 08:31:36;;;;;;;2.40;0.73;;;;;;;21.44;58.49;95672.13;10285247;28;20788;-27
2023/09/22 08:36:36;;;;;;;13.57;1.55;;;;;;;21.45;59.65;95696.72;10279869;28;20058;-27
2023/09/22 08:41:38;;;;;;;6.95;1.70;;;;;;;21.44;59.31;95689.13;10291174;28;20054;-27
2023/09/22 08:46:39;;;;;;;5.68;0.90;;;;;;;21.49;58.93;95698.28;10285838;28;20130;-26
2023/09/22 08:51:39;;;;;;;5.75;1.15;;;;;;;21.49;59.18;95695.75;10288840;28;20039;-27
2023/09/22 08:56:40;;;;;;;5.25;1.10;;;;;;;21.45;59.12;95690.78;10281741;28;20489;-27
2023/09/22 09:01:40;;;;;;;2.80;0.90;;;;;;;21.30;59.77;95697.13;10288554;28;20022;-27
2023/09/22 09:06:47;;;;;;;5.00;1.47;;;;;;;21.08;60.15;95696.06;10293321;28;20121;-28
2023/09/22 09:12:01;;;;;;;3.10;1.20;;;;;;;20.95;60.38;95696.38;10289754;28;20101;-28
2023/09/22 09:17:01;;;;;;;2.72;1.00;;;;;;;20.90;60.43;95688.06;10287688;28;20266;-27
2023/09/22 09:22:06;;;;;;;3.67;1.00;;;;;;;20.93;60.25;95700.69;10289762;28;20046;-27
2023/09/22 09:27:17;;;;;;;1.67;0.77;;;;;;;21.13;60.18;95689.13;10285353;28;20393;-27
2023/09/22 09:32:23;;;;;;;3.92;1.20;;;;;;;21.25;58.53;95698.97;10291469;28;20031;-28
2023/09/22 09:37:23;;;;;;;2.83;1.20;;;;;;;21.02;59.56;95703.84;10288650;28;20070;-27
2023/09/22 09:42:25;;;;;;;1.33;0.85;;;;;;;20.91;59.62;95698.19;10285734;28;20544;-27
2023/09/22 09:47:27;;;;;;;3.22;1.10;;;;;;;20.88;60.13;95698.25;10290255;28;20082;-27
2023/09/22 09:52:37;;;;;;;3.33;1.05;;;;;;;20.86;59.66;95700.03;10291116;28;20042;-27
2023/09/22 09:57:40;;;;;;;3.35;0.93;;;;;;;20.86;59.66;95700.03;10287911;28;20042;-27
2023/09/22 10:02:44;;;;;;;3.50;1.50;;;;;;;20.84;59.29;95691.56;10283886;28;20042;-27
2023/09/22 10:07:46;;;;;;;4.25;1.00;;;;;;;20.84;59.04;95690.72;10284211;28;20516;-27
2023/09/22 10:12:47;;;;;;;3.20;1.13;;;;;;;20.81;58.94;95709.44;10286481;28;20042;-27
2023/09/22 10:17:54;;;;;;;1.92;0.80;;;;;;;20.80;58.77;95705.22;10287518;28;20031;-27
2023/09/22 10:23:25;;;;;;;2.22;0.93;;;;;;;20.78;58.49;95694.25;10289893;28;20031;-27
2023/09/22 10:28:27;;;;;;;2.92;0.88;;;;;;;20.76;58.54;95701.09;10288736;28;20074;-27
2023/09/22 10:33:30;;;;;;;2.88;0.88;;;;;;;20.79;58.08;95706.09;10286895;28;20426;-27
2023/09/22 10:38:50;;;;;;;2.42;0.80;;;;;;;20.78;57.63;95722.22;10285583;28;20035;-26
2023/09/22 10:44:00;;;;;;;2.50;0.80;;;;;;;20.73;57.39;95716.41;10287950;28;20033;-28
2023/09/22 10:49:00;;;;;;;5.00;0.95;;;;;;;20.71;57.65;95710.53;10286361;28;20118;-28
2023/09/22 10:54:01;;;;;;;1.85;0.77;;;;;;;20.72;57.00;95699.47;10283589;28;20053;-28
2023/09/22 10:59:01;;;;;;;2.33;1.00;;;;;;;20.68;56.59;95692.81;10284735;28;20046;-26
2023/09/22 11:04:04;;;;;;;4.03;1.00;;;;;;;20.70;56.48;95682.59;10286716;28;20069;-27
2023/09/22 11:09:05;;;;;;;3.63;0.85;;;;;;;20.68;56.58;95682.66;10282462;28;20045;-27
2023/09/22 11:14:07;;;;;;;2.10;0.60;;;;;;;20.69;56.50;95686.00;10286840;28;20428;-27
2023/09/22 11:19:11;;;;;;;2.78;0.88;;;;;;;20.69;56.11;95671.59;10285842;28;20035;-27
2023/09/22 11:24:11;;;;;;;3.42;0.75;;;;;;;20.70;55.50;95668.19;10284737;28;20101;-27
2023/09/22 11:29:15;;;;;;;2.63;0.77;;;;;;;20.69;55.00;95665.66;10299229;28;20460;-27
2023/09/22 11:34:18;;;;;;;1.75;0.57;;;;;;;20.71;55.12;95658.84;10301326;28;20045;-27
2023/09/22 11:39:34;;;;;;;2.00;0.60;;;;;;;20.68;55.13;95659.75;10290111;28;20042;-27
2023/09/22 11:44:34;;;;;;;3.70;0.93;;;;;;;20.70;54.99;95658.00;10303151;28;20417;-26
2023/09/22 11:49:36;;;;;;;2.57;0.80;;;;;;;20.77;55.08;95651.88;10298594;28;20030;-27
2023/09/22 11:54:37;;;;;;;5.28;0.90;;;;;;;20.75;54.62;95655.34;10286344;28;20050;-27
2023/09/22 11:59:40;;;;;;;4.13;0.82;;;;;;;20.68;54.65;95641.94;10285879;28;20042;-27
2023/09/22 12:04:40;;;;;;;2.17;0.75;;;;;;;20.79;54.53;95646.78;10290063;28;20038;-27
2023/09/22 12:09:41;;;;;;;7.97;0.93;;;;;;;20.89;54.29;95645.69;10292366;28;20412;-27
2023/09/22 12:14:41;;;;;;;2.47;0.80;;;;;;;21.00;54.74;95644.53;10290967;28;20116;-27
2023/09/22 12:19:42;;;;;;;5.10;0.90;;;;;;;21.07;54.85;95640.09;10303897;28;20038;-27
2023/09/22 12:24:42;;;;;;;4.53;0.90;;;;;;;21.10;55.24;95627.28;10295250;28;20374;-27
2023/09/22 12:29:43;;;;;;;1.80;0.70;;;;;;;21.12;55.39;95628.91;10293706;28;20305;-27
2023/09/22 12:34:43;;;;;;;1.77;0.80;;;;;;;21.14;55.48;95629.69;10297049;28;20293;-27
2023/09/22 12:39:44;;;;;;;2.63;0.70;;;;;;;21.16;55.69;95620.31;10297283;28;20093;-27
2023/09/22 12:44:45;;;;;;;4.00;0.98;;;;;;;21.17;55.66;95613.50;10293008;28;20031;-27
2023/09/22 12:49:46;;;;;;;1.75;0.73;;;;;;;21.17;55.88;95619.44;10284384;28;20105;-27
2023/09/22 12:54:46;;;;;;;3.30;0.90;;;;;;;21.19;55.90;95612.59;10296167;28;20458;-28
2023/09/22 12:59:46;;;;;;;2.93;0.70;;;;;;;21.19;56.05;95609.19;10292587;28;20297;-27
2023/09/22 13:04:47;;;;;;;2.57;1.13;;;;;;;21.19;56.06;95612.59;10300996;28;20123;-27
2023/09/22 13:09:47;;;;;;;2.80;0.80;;;;;;;21.20;55.97;95608.31;10299854;28;20031;-27
2023/09/22 13:14:53;;;;;;;2.07;0.77;;;;;;;21.19;55.90;95607.50;10296572;28;20548;-27
2023/09/22 13:19:54;;;;;;;2.23;0.60;;;;;;;21.18;56.16;95594.81;10296341;28;20042;-27
2023/09/22 13:24:55;;;;;;;1.83;0.80;;;;;;;21.16;56.45;95589.78;10296608;28;20417;-28
2023/09/22 13:29:55;;;;;;;1.10;0.55;;;;;;;21.17;56.62;95588.91;10298908;28;20386;-27
2023/09/22 13:34:56;;;;;;;1.03;0.60;;;;;;;21.16;56.85;95581.31;10286393;28;20031;-27
2023/09/22 13:39:56;;;;;;;2.30;0.70;;;;;;;21.14;56.98;95581.34;10295391;28;20043;-27
2023/09/22 13:44:57;;;;;;;1.17;0.40;;;;;;;21.17;56.78;95575.31;10296097;28;20112;-27
2023/09/22 13:49:57;;;;;;;3.23;0.87;;;;;;;21.16;56.62;95571.97;10288002;28;20514;-26
2023/09/22 13:54:57;;;;;;;3.47;0.87;;;;;;;20.97;55.49;95585.25;10295955;28;20045;-27
2023/09/22 13:59:58;;;;;;;3.70;0.87;;;;;;;20.91;54.66;95590.50;10294293;28;20046;-27
2023/09/22 14:04:59;;;;;;;1.77;0.80;;;;;;;20.86;54.72;95593.16;10289190;28;20117;-27
2023/09/22 14:10:00;;;;;;;2.05;0.70;;;;;;;20.92;55.42;95592.16;10288881;28;20381;-27
2023/09/22 14:15:01;;;;;;;1.98;1.08;;;;;;;20.90;54.63;95591.38;10286297;28;20126;-28
2023/09/22 14:20:01;;;;;;;2.03;0.88;;;;;;;20.87;53.65;95592.28;10286296;28;20038;-27
2023/09/22 14:25:03;;;;;;;5.63;1.67;;;;;;;20.80;53.89;95585.66;10282863;28;20038;-26
2023/09/22 14:30:04;;;;;;;2.95;0.95;;;;;;;20.86;53.71;95577.06;10291586;28;20039;-27
2023/09/22 14:35:05;;;;;;;4.13;0.80;;;;;;;20.83;53.81;95587.28;10281451;28;20035;-27
2023/09/22 14:40:06;;;;;;;2.17;0.75;;;;;;;20.89;54.23;95585.44;10286332;28;20104;-27
2023/09/22 14:45:07;;;;;;;3.30;1.02;;;;;;;20.83;53.98;95589.84;10291124;28;20039;-27
2023/09/22 14:50:08;;;;;;;1.98;0.90;;;;;;;20.83;53.83;95587.28;10276861;28;20042;-27
2023/09/22 14:55:08;;;;;;;3.47;0.82;;;;;;;20.80;53.95;95593.28;10286916;28;20034;-27
2023/09/22 15:00:15;;;;;;;2.80;0.90;;;;;;;20.79;53.97;95581.44;10284483;28;20049;-27
2023/09/22 15:05:16;;;;;;;15.38;4.25;;;;;;;20.91;53.67;95576.06;10281686;28;20122;-27
2023/09/22 15:10:16;;;;;;;9.05;1.90;;;;;;;20.86;53.38;95590.63;10279053;28;20117;-27
2023/09/22 15:15:17;;;;;;;6.10;1.67;;;;;;;20.88;55.39;95611.75;10280355;28;20030;-28
2023/09/22 15:20:17;;;;;;;4.80;1.30;;;;;;;20.97;56.10;95606.41;10281819;28;20042;-27
2023/09/22 15:25:17;;;;;;;4.83;1.53;;;;;;;20.95;56.33;95613.28;10279749;28;20301;-27
2023/09/22 15:30:18;;;;;;;3.33;1.43;;;;;;;21.03;56.42;95621.53;10293371;28;20034;-27
2023/09/22 15:35:19;;;;;;;7.40;1.37;;;;;;;21.04;56.57;95620.66;10275885;28;20042;-27
2023/09/22 15:40:20;;;;;;;2.08;0.88;;;;;;;21.06;56.83;95625.72;10284000;28;20332;-28
2023/09/22 15:45:21;;;;;;;3.78;1.00;;;;;;;21.02;57.00;95619.88;10292342;28;20133;-27
2023/09/22 15:50:22;;;;;;;2.22;0.90;;;;;;;21.05;56.92;95611.31;10284675;28;20034;-27
2023/09/22 15:55:22;;;;;;;2.45;0.88;;;;;;;21.04;57.29;95595.19;10278574;28;20049;-28
2023/09/22 16:00:23;;;;;;;13.80;3.47;;;;;;;21.08;57.21;95601.03;10289599;28;20085;-27
2023/09/22 16:05:26;;;;;;;11.57;2.97;;;;;;;21.10;57.37;95622.19;10280597;28;20062;-26
2023/09/22 16:10:26;;;;;;;10.80;3.33;;;;;;;21.12;56.78;95649.28;10283676;28;20118;-27
2023/09/22 16:15:27;;;;;;;14.60;7.63;;;;;;;21.12;56.38;95672.19;10288720;28;20489;-27
2023/09/22 16:20:28;;;;;;;10.63;4.03;;;;;;;21.05;57.56;95721.56;10285747;28;20463;-27
2023/09/22 16:25:32;;;;;;;6.13;3.03;;;;;;;20.94;58.07;95732.88;10283935;28;20045;-26
2023/09/22 16:30:34;;;;;;;8.80;1.95;;;;;;;21.02;58.51;95721.66;10295942;28;20134;-27
2023/09/22 16:35:35;;;;;;;4.03;1.60;;;;;;;20.84;58.99;95736.50;10282552;28;20039;-27
2023/09/22 16:40:36;;;;;;;5.38;1.88;;;;;;;20.71;59.34;95741.06;10282589;28;20039;-26
2023/09/22 16:45:36;;;;;;;6.47;1.90;;;;;;;20.66;59.37;95758.16;10284868;28;20035;-27
2023/09/22 16:50:36;;;;;;;11.43;2.43;;;;;;;20.72;59.54;95775.78;10286484;28;20053;-27
2023/09/22 16:55:37;;;;;;;5.27;1.43;;;;;;;20.65;59.43;95781.88;10286563;28;20097;-27
2023/09/22 17:00:38;;;;;;;4.20;1.45;;;;;;;20.59;59.79;95779.50;10303113;28;20041;-28
2023/09/22 17:05:38;;;;;;;4.20;1.55;;;;;;;20.81;59.16;95783.22;10285824;28;20035;-27
2023/09/22 17:10:40;;;;;;;2.65;2.08;;;;;;;20.81;59.48;95797.66;10289785;28;20042;-26
2023/09/22 17:15:41;;;;;;;4.15;1.60;;;;;;;20.93;59.15;95775.31;10290394;28;20062;-26
2023/09/22 17:20:42;;;;;;;4.80;1.50;;;;;;;20.98;59.93;95795.56;10293244;28;20061;-27
2023/09/22 17:25:50;;;;;;;3.13;1.50;;;;;;;20.95;59.36;95806.66;10291537;28;20050;-26
2023/09/22 17:31:01;;;;;;;3.42;1.30;;;;;;;20.95;59.34;95816.81;10293999;28;20325;-27
2023/09/22 17:36:04;;;;;;;2.28;1.10;;;;;;;20.98;58.73;95837.09;10290512;28;20039;-27
2023/09/22 17:41:04;;;;;;;1.65;1.10;;;;;;;20.95;58.86;95838.88;10293364;28;20148;-26
2023/09/22 17:46:06;;;;;;;2.80;0.80;;;;;;;20.99;59.05;95854.03;10293100;28;20031;-27
2023/09/22 17:51:06;;;;;;;6.32;1.20;;;;;;;20.96;59.10;95863.47;10291935;28;20039;-27
2023/09/22 17:56:07;;;;;;;2.33;0.98;;;;;;;20.96;58.00;95861.75;10291175;28;20030;-27
2023/09/22 18:01:10;;;;;;;1.90;1.10;;;;;;;20.97;58.34;95860.88;10289985;28;20073;-27
2023/09/22 18:06:10;;;;;;;1.65;1.30;;;;;;;20.93;57.93;95864.38;10289539;28;20324;-26
2023/09/22 18:11:11;;;;;;;2.15;0.60;;;;;;;20.97;57.79;95886.34;10289787;28;20039;-28
2023/09/22 18:16:11;;;;;;;1.00;0.70;;;;;;;20.97;57.95;95881.25;10292728;28;20401;-28
2023/09/22 18:21:11;;;;;;;5.47;1.10;;;;;;;20.95;57.47;95903.34;10284060;28;20469;-28
2023/09/22 18:26:12;;;;;;;3.07;0.60;;;;;;;20.99;57.92;95909.22;10288881;28;20041;-27
2023/09/22 18:31:13;;;;;;;0.68;0.65;;;;;;;21.00;57.67;95905.78;10291922;28;20290;-30
2023/09/22 18:36:14;;;;;;;0.82;0.70;;;;;;;20.95;57.88;95893.16;10287166;28;20122;-26
2023/09/22 18:41:14;;;;;;;0.87;0.53;;;;;;;20.94;57.48;95896.59;10283397;28;20474;-27
2023/09/22 18:46:17;;;;;;;1.63;0.70;;;;;;;20.95;57.25;95895.72;10290412;28;20034;-27
2023/09/22 18:51:20;;;;;;;1.00;0.60;;;;;;;20.93;57.09;95904.25;10287552;28;20509;-27
2023/09/22 18:56:20;;;;;;;1.38;0.70;;;;;;;20.94;57.25;95908.47;10281207;28;20219;-27
2023/09/22 19:01:22;;;;;;;0.40;0.40;;;;;;;20.93;57.17;95917.81;10285472;28;20026;-27
2023/09/22 19:06:23;;;;;;;0.50;0.40;;;;;;;20.93;57.20;95922.91;10281028;28;20047;-27
2023/09/22 19:11:24;;;;;;;1.25;0.60;;;;;;;20.93;57.29;95933.09;10279188;28;20505;-27
2023/09/22 19:16:24;;;;;;;1.30;0.80;;;;;;;20.93;56.96;95948.34;10281996;28;20035;-27
2023/09/22 19:21:25;;;;;;;1.27;0.50;;;;;;;20.92;57.08;95945.84;10282883;28;20030;-27
2023/09/22 19:26:26;;;;;;;1.17;0.68;;;;;;;20.91;57.32;95955.19;10279900;28;20027;-27
2023/09/22 19:31:30;;;;;;;1.17;0.53;;;;;;;20.90;57.07;95971.31;10280737;28;20031;-27
2023/09/22 19:36:33;;;;;;;2.55;0.63;;;;;;;20.91;57.41;95973.00;10291418;28;20034;-27
2023/09/22 19:41:33;;;;;;;1.10;0.80;;;;;;;20.90;57.23;95986.56;10280634;28;20030;-27
2023/09/22 19:46:34;;;;;;;1.17;0.50;;;;;;;20.91;57.04;95983.19;10279906;28;20034;-26
2023/09/22 19:51:34;;;;;;;0.90;0.60;;;;;;;20.91;57.05;95982.34;10283572;28;20070;-27
2023/09/22 19:56:35;;;;;;;0.60;0.50;;;;;;;20.91;56.84;95967.91;10284141;28;20050;-27
2023/09/22 20:01:35;;;;;;;1.00;0.50;;;;;;;20.88;57.08;95974.78;10287050;28;20049;-27
2023/09/22 20:06:36;;;;;;;0.60;0.50;;;;;;;20.89;56.86;95992.53;10278120;28;20360;-27
2023/09/22 20:11:37;;;;;;;0.90;0.40;;;;;;;20.92;56.77;96009.44;10283187;28;20034;-28
2023/09/22 20:16:37;;;;;;;2.40;0.47;;;;;;;20.86;56.77;96018.06;10290613;28;20030;-27
2023/09/22 20:21:39;;;;;;;0.40;0.30;;;;;;;20.54;56.86;96022.91;10286446;28;20034;-27
2023/09/22 20:26:39;;;;;;;1.67;0.90;;;;;;;20.42;56.51;96018.06;10284229;28;20034;-27
2023/09/22 20:31:40;;;;;;;1.93;0.70;;;;;;;20.14;55.96;96020.28;10290716;28;20038;-26
2023/09/22 20:36:40;;;;;;;1.57;0.80;;;;;;;20.04;55.77;96031.44;10285397;28;20113;-28
2023/09/22 20:41:41;;;;;;;0.70;0.60;;;;;;;19.92;55.53;96034.19;10290705;28;20922;-27
2023/09/22 20:46:42;;;;;;;0.57;0.50;;;;;;;19.83;55.48;96031.81;10292345;28;20112;-27
2023/09/22 20:51:42;;;;;;;3.22;0.52;;;;;;;19.78;55.51;96046.25;10302322;28;20477;-28
2023/09/22 20:56:43;;;;;;;1.30;0.40;;;;;;;19.74;55.27;96050.56;10285431;28;20055;-27
2023/09/22 21:01:48;;;;;;;1.88;0.70;;;;;;;19.78;55.81;96053.88;10286322;28;20046;-27
2023/09/22 21:06:51;;;;;;;1.60;0.80;;;;;;;19.73;55.25;96070.88;10291295;28;20031;-27
2023/09/22 21:11:52;;;;;;;0.98;0.60;;;;;;;19.66;55.14;96082.03;10289401;28;20421;-27
2023/09/22 21:16:53;;;;;;;2.60;0.70;;;;;;;19.63;55.71;96087.13;10292082;28;20046;-26
2023/09/22 21:21:53;;;;;;;4.13;0.60;;;;;;;19.66;55.44;96098.06;10286093;28;20023;-26
2023/09/22 21:26:54;;;;;;;1.47;0.40;;;;;;;19.62;55.35;96115.91;10289353;28;20117;-27
2023/09/22 21:31:54;;;;;;;1.40;0.50;;;;;;;19.59;55.12;96131.22;10289792;28;20470;-27
2023/09/22 21:36:54;;;;;;;0.80;0.45;;;;;;;19.59;55.35;96136.28;10288710;28;20034;-26
2023/09/22 21:41:55;;;;;;;2.33;0.70;;;;;;;19.59;55.25;96141.38;10283315;28;20026;-25
2023/09/22 21:46:55;;;;;;;2.83;0.67;;;;;;;19.54;55.11;96140.56;10288390;28;20042;-26
2023/09/22 21:51:56;;;;;;;2.10;0.50;;;;;;;19.49;55.29;96155.06;10286093;28;20789;-26
2023/09/22 21:56:56;;;;;;;0.93;0.63;;;;;;;19.53;54.96;96161.75;10288563;28;20461;-25
2023/09/22 22:01:56;;;;;;;2.10;1.00;;;;;;;19.52;54.83;96165.16;10289395;28;20490;-26
2023/09/22 22:06:58;;;;;;;1.07;0.57;;;;;;;19.45;55.00;96172.03;10290432;28;20062;-26
2023/09/22 22:11:59;;;;;;;1.83;0.70;;;;;;;19.40;55.46;96175.44;10288302;28;20047;-26
2023/09/22 22:16:59;;;;;;;2.53;0.50;;;;;;;19.53;55.11;96172.75;10286780;28;20038;-25
2023/09/22 22:22:01;;;;;;;1.77;0.70;;;;;;;19.59;54.75;96184.53;10290067;28;20078;-26
2023/09/22 22:27:03;;;;;;;1.10;0.70;;;;;;;19.48;55.23;96183.81;10287553;28;20038;-25
2023/09/22 22:32:04;;;;;;;2.78;0.70;;;;;;;19.49;55.27;96188.06;10289916;28;20062;-26
2023/09/22 22:37:05;;;;;;;2.10;0.60;;;;;;;19.42;55.41;96201.69;10286384;28;20035;-26
2023/09/22 22:42:06;;;;;;;3.15;0.57;;;;;;;19.39;55.58;96200.00;10287065;28;20031;-26
2023/09/22 22:47:10;;;;;;;0.80;0.50;;;;;;;19.44;55.55;96205.84;10286279;28;20031;-26
2023/09/22 22:52:10;;;;;;;1.42;0.70;;;;;;;19.48;55.74;96211.72;10288567;28;20035;-26
2023/09/22 22:57:11;;;;;;;1.50;0.60;;;;;;;19.43;55.71;96216.03;10286166;28;20030;-25
2023/09/22 23:02:12;;;;;;;1.65;0.52;;;;;;;19.41;55.80;96221.13;10284716;28;20065;-26
2023/09/22 23:07:14;;;;;;;0.82;0.50;;;;;;;19.43;55.69;96231.28;10286506;28;20398;-26
2023/09/22 23:12:15;;;;;;;1.07;0.63;;;;;;;19.39;56.00;96237.22;10285541;28;20031;-26
2023/09/22 23:17:15;;;;;;;1.35;0.50;;;;;;;19.36;56.10;96252.50;10287530;28;20035;-26
2023/09/22 23:22:16;;;;;;;0.93;0.43;;;;;;;19.32;56.20;96261.84;10283031;28;20039;-26